createdAt,value
2018-07-31T00:01:13.138Z,56.07
2018-07-31T00:03:40.633Z,56.00
2018-07-31T00:06:08.116Z,56.47
2018-07-31T00:08:35.610Z,56.22
2018-07-31T00:11:03.160Z,55.17
2018-07-31T00:13:30.665Z,54.87
2018-07-31T00:15:58.156Z,54.92
2018-07-31T00:18:25.653Z,53.53
2018-07-31T00:20:53.168Z,53.28
2018-07-31T00:23:20.608Z,52.86
2018-07-31T00:25:48.097Z,52.22
2018-07-31T00:28:15.530Z,53.11
2018-07-31T00:30:43.010Z,52.39
2018-07-31T00:33:10.562Z,52.54
2018-07-31T00:35:38.023Z,52.02
2018-07-31T00:38:05.521Z,51.76
2018-07-31T00:40:32.990Z,53.75
2018-07-31T00:43:00.455Z,54.68
2018-07-31T00:45:27.972Z,56.11
2018-07-31T00:47:55.399Z,57.13
2018-07-31T00:50:22.892Z,57.69
2018-07-31T00:52:50.298Z,57.95
2018-07-31T00:55:17.728Z,58.07
2018-07-31T00:57:45.157Z,57.94
2018-07-31T01:00:12.633Z,57.72
2018-07-31T01:02:40.125Z,57.88
2018-07-31T01:05:07.749Z,57.62
2018-07-31T01:07:35.179Z,57.68
2018-07-31T01:10:02.684Z,57.74
2018-07-31T01:12:30.179Z,57.60
2018-07-31T01:14:57.669Z,57.56
2018-07-31T01:17:25.100Z,57.26
2018-07-31T01:19:52.556Z,56.47
2018-07-31T01:22:20.039Z,55.67
2018-07-31T01:24:47.626Z,55.95
2018-07-31T01:27:15.068Z,56.97
2018-07-31T01:29:42.541Z,57.04
2018-07-31T01:32:09.961Z,57.25
2018-07-31T01:34:37.436Z,57.84
2018-07-31T01:37:04.819Z,58.65
2018-07-31T01:39:32.312Z,58.38
2018-07-31T01:41:59.770Z,57.93
2018-07-31T01:44:27.178Z,56.45
2018-07-31T01:46:54.618Z,57.64
2018-07-31T01:49:22.018Z,58.72
2018-07-31T01:51:49.494Z,59.52
2018-07-31T01:54:17.011Z,60.01
2018-07-31T01:56:44.484Z,60.53
2018-07-31T01:59:11.941Z,60.90
2018-07-31T02:01:39.467Z,61.16
2018-07-31T02:04:06.934Z,61.17
2018-07-31T02:06:34.430Z,60.57
2018-07-31T02:09:01.886Z,60.90
2018-07-31T02:11:29.356Z,61.27
2018-07-31T02:13:56.771Z,62.08
2018-07-31T02:16:24.215Z,62.45
2018-07-31T02:18:51.634Z,62.77
2018-07-31T02:21:19.078Z,63.04
2018-07-31T02:23:46.514Z,63.09
2018-07-31T02:26:13.947Z,63.08
2018-07-31T02:28:41.595Z,63.18
2018-07-31T02:31:08.984Z,63.08
2018-07-31T02:33:36.490Z,63.21
2018-07-31T02:36:03.893Z,63.23
2018-07-31T02:38:31.342Z,63.31
2018-07-31T02:40:58.775Z,63.37
2018-07-31T02:43:26.253Z,63.38
2018-07-31T02:45:53.694Z,63.21
2018-07-31T02:48:21.149Z,62.27
2018-07-31T02:50:48.607Z,62.17
2018-07-31T02:53:16.012Z,62.69
2018-07-31T02:55:43.463Z,63.41
2018-07-31T02:58:10.946Z,63.60
2018-07-31T03:00:38.345Z,63.57
2018-07-31T03:03:05.809Z,63.51
2018-07-31T03:05:33.545Z,63.59
2018-07-31T03:08:01.242Z,63.38
2018-07-31T03:10:28.694Z,63.72
2018-07-31T03:12:56.186Z,63.33
2018-07-31T03:15:23.741Z,63.52
2018-07-31T03:17:51.171Z,63.55
2018-07-31T03:20:18.629Z,63.28
2018-07-31T03:22:46.078Z,63.08
2018-07-31T03:25:13.533Z,62.92
2018-07-31T03:27:41.150Z,63.09
2018-07-31T03:30:08.569Z,63.37
2018-07-31T03:32:36.012Z,63.38
2018-07-31T03:35:03.465Z,63.30
2018-07-31T03:37:30.919Z,62.83
2018-07-31T03:39:58.483Z,62.72
2018-07-31T03:42:25.929Z,61.96
2018-07-31T03:44:53.399Z,61.29
2018-07-31T03:47:20.823Z,61.36
2018-07-31T03:49:48.274Z,61.07
2018-07-31T03:52:15.711Z,61.34
2018-07-31T03:54:43.116Z,60.71
2018-07-31T03:57:10.561Z,61.19
2018-07-31T03:59:37.979Z,61.54
2018-07-31T04:02:05.406Z,62.19
2018-07-31T04:04:32.903Z,63.00
2018-07-31T04:07:00.350Z,62.81
2018-07-31T04:09:27.871Z,62.73
2018-07-31T04:11:55.318Z,63.16
2018-07-31T04:14:22.843Z,63.28
2018-07-31T04:16:50.480Z,62.87
2018-07-31T04:19:18.105Z,63.01
2018-07-31T04:21:45.749Z,63.68
2018-07-31T04:24:13.182Z,62.33
2018-07-31T04:26:40.712Z,60.91
2018-07-31T04:29:09.032Z,61.97
2018-07-31T04:31:36.486Z,62.04
2018-07-31T04:34:03.984Z,61.82
2018-07-31T04:36:31.469Z,61.03
2018-07-31T04:38:58.902Z,60.52
2018-07-31T04:41:26.346Z,61.17
2018-07-31T04:43:53.757Z,60.30
2018-07-31T04:46:21.259Z,60.49
2018-07-31T04:48:48.751Z,60.81
2018-07-31T04:51:16.263Z,60.98
2018-07-31T04:53:44.503Z,61.15
2018-07-31T04:56:11.943Z,61.32
2018-07-31T04:58:39.391Z,61.37
2018-07-31T05:01:06.806Z,61.70
2018-07-31T05:03:34.339Z,61.93
2018-07-31T05:06:01.784Z,61.73
2018-07-31T05:08:29.358Z,62.12
2018-07-31T05:10:56.823Z,62.10
2018-07-31T05:13:24.269Z,61.99
2018-07-31T05:15:51.690Z,61.75
2018-07-31T05:18:19.241Z,61.78
2018-07-31T05:20:46.585Z,61.75
2018-07-31T05:23:14.134Z,61.84
2018-07-31T05:25:41.555Z,61.64
2018-07-31T05:28:08.978Z,61.95
2018-07-31T05:30:36.385Z,61.70
2018-07-31T05:33:03.799Z,61.44
2018-07-31T05:35:31.291Z,61.48
2018-07-31T05:37:58.759Z,61.49
2018-07-31T05:40:26.162Z,61.49
2018-07-31T05:42:53.604Z,61.37
2018-07-31T05:45:21.090Z,61.26
2018-07-31T05:47:48.520Z,60.97
2018-07-31T05:50:16.088Z,60.31
2018-07-31T05:52:43.587Z,59.72
2018-07-31T05:55:11.124Z,59.39
2018-07-31T05:57:38.702Z,58.72
2018-07-31T06:00:06.145Z,58.42
2018-07-31T06:02:33.606Z,58.48
2018-07-31T06:05:01.084Z,57.95
2018-07-31T06:07:28.562Z,57.20
2018-07-31T06:09:56.073Z,56.46
2018-07-31T06:12:23.689Z,56.08
2018-07-31T06:14:51.141Z,55.57
2018-07-31T06:17:18.638Z,55.60
2018-07-31T06:19:46.487Z,55.34
2018-07-31T06:22:13.918Z,55.07
2018-07-31T06:24:41.537Z,54.71
2018-07-31T06:27:09.157Z,54.42
2018-07-31T06:29:36.694Z,54.12
2018-07-31T06:32:04.131Z,53.60
2018-07-31T06:34:31.596Z,53.27
2018-07-31T06:36:59.048Z,53.17
2018-07-31T06:39:26.675Z,51.93
2018-07-31T06:41:54.412Z,50.99
2018-07-31T06:44:21.972Z,50.69
2018-07-31T06:46:49.479Z,50.59
2018-07-31T06:49:17.240Z,50.11
2018-07-31T06:51:44.699Z,49.41
2018-07-31T06:54:12.230Z,48.93
2018-07-31T06:56:39.746Z,48.64
2018-07-31T06:59:07.214Z,48.62
2018-07-31T07:01:34.774Z,48.25
2018-07-31T07:04:02.238Z,47.55
2018-07-31T07:06:29.674Z,46.98
2018-07-31T07:08:57.239Z,47.08
2018-07-31T07:11:24.698Z,46.75
2018-07-31T07:13:52.507Z,45.79
2018-07-31T07:16:20.031Z,45.28
2018-07-31T07:18:47.451Z,45.52
2018-07-31T07:21:15.191Z,45.15
2018-07-31T07:23:42.775Z,44.94
2018-07-31T07:26:10.403Z,44.79
2018-07-31T07:28:38.047Z,44.29
2018-07-31T07:31:05.652Z,44.17
2018-07-31T07:33:33.180Z,43.53
2018-07-31T07:36:00.727Z,42.38
2018-07-31T07:38:28.170Z,41.56
2018-07-31T07:40:55.739Z,41.55
2018-07-31T07:43:23.181Z,41.90
2018-07-31T07:45:50.956Z,42.03
2018-07-31T07:48:18.464Z,41.20
2018-07-31T07:50:46.033Z,40.82
2018-07-31T07:53:13.485Z,41.52
2018-07-31T07:55:40.904Z,41.90
2018-07-31T07:58:08.363Z,41.91
2018-07-31T08:00:35.836Z,42.05
2018-07-31T08:03:03.379Z,41.45
2018-07-31T08:05:30.843Z,40.90
2018-07-31T08:07:58.296Z,41.52
2018-07-31T08:10:25.737Z,42.31
2018-07-31T08:12:53.171Z,42.46
2018-07-31T08:15:20.779Z,42.47
2018-07-31T08:17:48.303Z,42.38
2018-07-31T08:20:15.892Z,42.14
2018-07-31T08:22:43.378Z,41.76
2018-07-31T08:25:10.860Z,40.99
2018-07-31T08:27:39.335Z,39.28
2018-07-31T08:30:06.756Z,38.11
2018-07-31T08:32:34.240Z,38.25
2018-07-31T08:35:01.968Z,38.00
2018-07-31T08:37:28.912Z,37.32
2018-07-31T08:39:56.067Z,36.33
2018-07-31T08:42:23.070Z,35.80
2018-07-31T08:44:50.067Z,34.19
2018-07-31T08:47:17.054Z,33.33
2018-07-31T08:49:44.194Z,32.82
2018-07-31T08:52:11.882Z,32.50
2018-07-31T08:54:38.903Z,31.90
2018-07-31T08:57:06.216Z,31.25
2018-07-31T08:59:33.205Z,31.24
2018-07-31T09:02:00.298Z,31.93
2018-07-31T09:04:27.300Z,32.42
2018-07-31T09:06:54.395Z,32.90
2018-07-31T09:09:21.391Z,32.68
2018-07-31T09:11:48.500Z,32.02
2018-07-31T09:14:15.655Z,31.87
2018-07-31T09:16:43.184Z,31.82
2018-07-31T09:19:10.189Z,31.98
2018-07-31T09:21:37.288Z,33.33
2018-07-31T09:24:04.800Z,32.94
2018-07-31T09:26:31.939Z,34.19
2018-07-31T09:28:59.384Z,34.60
2018-07-31T09:31:26.991Z,34.39
2018-07-31T09:33:54.700Z,33.91
2018-07-31T09:36:22.191Z,33.30
2018-07-31T09:38:49.643Z,34.25
2018-07-31T09:41:17.170Z,33.92
2018-07-31T09:43:44.638Z,33.52
2018-07-31T09:46:12.292Z,33.14
2018-07-31T09:48:39.772Z,32.44
2018-07-31T09:51:07.293Z,32.30
2018-07-31T09:53:34.468Z,31.94
2018-07-31T09:56:02.008Z,31.85
2018-07-31T09:58:29.438Z,31.07
2018-07-31T10:00:56.980Z,30.92
2018-07-31T10:03:24.451Z,29.87
2018-07-31T10:05:52.126Z,30.47
2018-07-31T10:08:19.656Z,30.27
2018-07-31T10:10:47.154Z,30.33
2018-07-31T10:13:14.668Z,29.90
2018-07-31T10:15:41.691Z,29.34
2018-07-31T10:18:08.757Z,29.06
2018-07-31T10:20:35.766Z,29.97
2018-07-31T10:23:02.742Z,30.71
2018-07-31T10:25:29.966Z,30.64
2018-07-31T10:27:57.103Z,30.74
2018-07-31T10:30:24.087Z,31.34
2018-07-31T10:32:51.094Z,31.82
2018-07-31T10:35:19.038Z,32.04
2018-07-31T10:37:46.255Z,32.01
2018-07-31T10:40:13.249Z,31.71
2018-07-31T10:42:40.263Z,31.93
2018-07-31T10:45:07.252Z,32.05
2018-07-31T10:47:34.317Z,32.10
2018-07-31T10:50:01.291Z,30.92
2018-07-31T10:52:28.376Z,29.60
2018-07-31T10:54:55.536Z,28.23
2018-07-31T10:57:22.481Z,28.87
2018-07-31T10:59:49.860Z,28.95
2018-07-31T11:02:16.745Z,29.37
2018-07-31T11:04:43.950Z,30.56
2018-07-31T11:07:11.010Z,30.83
2018-07-31T11:09:38.428Z,30.17
2018-07-31T11:12:05.509Z,29.50
2018-07-31T11:14:33.099Z,29.21
2018-07-31T11:17:00.617Z,28.03
2018-07-31T11:19:27.608Z,27.46
2018-07-31T11:21:54.599Z,27.81
2018-07-31T11:24:22.164Z,27.69
2018-07-31T11:26:49.163Z,27.57
2018-07-31T11:29:16.176Z,27.48
2018-07-31T11:31:43.150Z,28.00
2018-07-31T11:34:10.162Z,27.99
2018-07-31T11:36:37.208Z,27.53
2018-07-31T11:39:04.231Z,27.61
2018-07-31T11:41:31.227Z,27.98
2018-07-31T11:43:58.776Z,27.81
2018-07-31T11:46:25.985Z,27.41
2018-07-31T11:48:53.756Z,27.37
2018-07-31T11:51:21.382Z,27.21
2018-07-31T11:53:49.030Z,27.26
2018-07-31T11:56:16.627Z,27.38
2018-07-31T11:58:44.243Z,27.11
2018-07-31T12:01:11.927Z,27.08
2018-07-31T12:03:39.339Z,26.90
2018-07-31T12:06:06.888Z,26.66
2018-07-31T12:08:34.360Z,26.48
2018-07-31T12:11:01.906Z,26.26
2018-07-31T12:13:29.442Z,26.46
2018-07-31T12:15:56.995Z,26.26
2018-07-31T12:18:24.515Z,26.30
2018-07-31T12:20:52.056Z,26.11
2018-07-31T12:23:20.462Z,26.28
2018-07-31T12:25:47.960Z,26.46
2018-07-31T12:28:16.730Z,26.86
2018-07-31T12:30:44.351Z,28.05
2018-07-31T12:33:11.848Z,28.00
2018-07-31T12:35:39.339Z,27.76
2018-07-31T12:38:06.819Z,27.87
2018-07-31T12:40:34.252Z,27.75
2018-07-31T12:43:01.790Z,27.52
2018-07-31T12:45:29.267Z,27.42
2018-07-31T12:47:57.016Z,28.33
2018-07-31T12:50:24.465Z,27.44
2018-07-31T12:52:51.920Z,28.02
2018-07-31T12:55:19.470Z,28.98
2018-07-31T12:57:46.955Z,29.66
2018-07-31T13:00:14.429Z,30.25
2018-07-31T13:02:41.937Z,29.86
2018-07-31T13:05:09.402Z,29.53
2018-07-31T13:07:36.855Z,30.28
2018-07-31T13:10:04.312Z,30.46
2018-07-31T13:12:31.757Z,30.23
2018-07-31T13:14:59.217Z,30.19
2018-07-31T13:17:26.761Z,30.13
2018-07-31T13:19:55.332Z,30.46
2018-07-31T13:22:22.773Z,30.69
2018-07-31T13:24:50.232Z,30.76
2018-07-31T13:27:17.745Z,30.25
2018-07-31T13:29:45.195Z,29.49
2018-07-31T13:32:12.675Z,28.79
2018-07-31T13:34:40.184Z,28.27
2018-07-31T13:37:07.804Z,28.03
2018-07-31T13:39:35.287Z,27.53
2018-07-31T13:42:02.896Z,27.39
2018-07-31T13:44:30.367Z,27.21
2018-07-31T13:46:57.831Z,26.23
2018-07-31T13:49:25.323Z,27.01
2018-07-31T13:51:52.822Z,27.50
2018-07-31T13:54:20.328Z,26.86
2018-07-31T13:56:47.822Z,26.45
2018-07-31T13:59:15.303Z,25.96
2018-07-31T14:01:42.946Z,25.75
2018-07-31T14:04:10.379Z,25.68
2018-07-31T14:06:37.863Z,25.11
2018-07-31T14:09:05.360Z,25.96
2018-07-31T14:11:32.812Z,26.13
2018-07-31T14:14:00.347Z,26.51
2018-07-31T14:16:27.877Z,26.17
2018-07-31T14:18:55.385Z,26.74
2018-07-31T14:21:22.878Z,26.91
2018-07-31T14:23:50.299Z,27.19
2018-07-31T14:26:17.711Z,28.02
2018-07-31T14:28:45.317Z,28.76
2018-07-31T14:31:12.780Z,29.04
2018-07-31T14:33:40.278Z,28.75
2018-07-31T14:36:07.864Z,28.66
2018-07-31T14:38:35.328Z,28.84
2018-07-31T14:41:02.842Z,28.91
2018-07-31T14:43:30.318Z,29.19
2018-07-31T14:45:58.200Z,29.17
2018-07-31T14:48:25.711Z,28.12
2018-07-31T14:50:53.216Z,27.72
2018-07-31T14:53:20.788Z,27.40
2018-07-31T14:55:48.278Z,27.24
2018-07-31T14:58:15.747Z,27.11
2018-07-31T15:00:43.193Z,27.02
2018-07-31T15:03:10.661Z,27.09
2018-07-31T15:05:38.365Z,26.82
2018-07-31T15:08:05.798Z,26.76
2018-07-31T15:10:33.260Z,26.97
2018-07-31T15:13:00.768Z,27.13
2018-07-31T15:15:28.307Z,26.94
2018-07-31T15:17:55.772Z,27.10
2018-07-31T15:20:23.460Z,26.67
2018-07-31T15:22:50.923Z,26.46
2018-07-31T15:25:18.465Z,26.54
2018-07-31T15:27:46.002Z,26.39
2018-07-31T15:30:13.484Z,26.59
2018-07-31T15:32:40.967Z,27.51
2018-07-31T15:35:08.481Z,27.59
2018-07-31T15:37:35.922Z,27.96
2018-07-31T15:40:03.437Z,27.58
2018-07-31T15:42:31.137Z,27.73
2018-07-31T15:44:58.746Z,27.87
2018-07-31T15:47:26.221Z,27.96
2018-07-31T15:49:53.691Z,28.56
2018-07-31T15:52:21.130Z,28.82
2018-07-31T15:54:48.607Z,29.02
2018-07-31T15:57:16.049Z,29.78
2018-07-31T15:59:43.582Z,30.36
2018-07-31T16:02:10.982Z,30.47
2018-07-31T16:04:38.475Z,30.08
2018-07-31T16:07:05.943Z,30.18
2018-07-31T16:09:33.358Z,30.38
2018-07-31T16:12:00.969Z,30.61
2018-07-31T16:14:28.505Z,31.02
2018-07-31T16:16:55.952Z,30.98
2018-07-31T16:19:23.991Z,30.88
2018-07-31T16:21:51.663Z,30.88
2018-07-31T16:24:19.076Z,30.56
2018-07-31T16:26:46.549Z,30.65
2018-07-31T16:29:14.018Z,30.73
2018-07-31T16:31:41.456Z,30.47
2018-07-31T16:34:09.041Z,30.37
2018-07-31T16:36:36.519Z,30.74
2018-07-31T16:39:04.008Z,30.86
2018-07-31T16:41:31.528Z,30.95
2018-07-31T16:43:58.977Z,31.09
2018-07-31T16:46:26.431Z,30.93
2018-07-31T16:48:54.014Z,30.92
2018-07-31T16:51:21.587Z,30.95
2018-07-31T16:53:49.020Z,31.44
2018-07-31T16:56:16.587Z,31.64
2018-07-31T16:58:44.107Z,31.82
2018-07-31T17:01:11.627Z,32.32
2018-07-31T17:03:39.302Z,32.54
2018-07-31T17:06:06.771Z,32.57
2018-07-31T17:08:34.219Z,32.47
2018-07-31T17:11:01.740Z,32.29
2018-07-31T17:13:29.245Z,32.45
2018-07-31T17:15:56.777Z,32.87
2018-07-31T17:18:24.249Z,33.45
2018-07-31T17:20:52.113Z,33.86
2018-07-31T17:23:19.765Z,33.58
2018-07-31T17:25:47.303Z,33.86
2018-07-31T17:30:48.395Z,34.32
2018-07-31T17:33:15.836Z,34.74
2018-07-31T17:35:43.310Z,35.44
2018-07-31T17:38:10.820Z,35.71
2018-07-31T17:40:38.320Z,36.08
2018-07-31T17:43:05.816Z,36.26
2018-07-31T17:45:33.257Z,36.52
2018-07-31T17:48:00.722Z,37.02
2018-07-31T17:50:28.353Z,37.48
2018-07-31T17:52:55.881Z,37.47
2018-07-31T17:55:23.456Z,37.42
2018-07-31T17:57:50.919Z,37.43
2018-07-31T18:00:18.449Z,37.00
2018-07-31T18:02:45.925Z,36.60
2018-07-31T18:05:13.554Z,36.31
2018-07-31T18:07:41.183Z,36.00
2018-07-31T18:10:08.731Z,36.30
2018-07-31T18:12:36.183Z,35.95
2018-07-31T18:15:03.852Z,35.83
2018-07-31T18:17:31.336Z,35.89
2018-07-31T18:19:58.894Z,36.01
2018-07-31T18:22:26.303Z,36.27
2018-07-31T18:24:53.981Z,36.86
2018-07-31T18:27:21.427Z,36.97
2018-07-31T18:29:48.922Z,37.24
2018-07-31T18:32:16.506Z,37.21
2018-07-31T18:34:44.016Z,37.50
2018-07-31T18:37:11.555Z,37.32
2018-07-31T18:39:38.551Z,37.79
2018-07-31T18:42:06.043Z,37.75
2018-07-31T18:44:33.642Z,37.82
2018-07-31T18:47:01.112Z,38.27
2018-07-31T18:49:28.608Z,38.43
2018-07-31T18:51:56.049Z,38.45
2018-07-31T18:54:23.608Z,38.74
2018-07-31T18:56:50.687Z,39.08
2018-07-31T18:59:18.105Z,39.40
2018-07-31T19:01:45.675Z,39.78
2018-07-31T19:04:13.130Z,39.73
2018-07-31T19:06:40.596Z,39.82
2018-07-31T19:09:08.216Z,39.78
2018-07-31T19:11:35.648Z,39.77
2018-07-31T19:14:03.091Z,39.86
2018-07-31T19:16:30.554Z,39.90
2018-07-31T19:18:58.008Z,39.93
2018-07-31T19:21:25.506Z,40.17
2018-07-31T19:23:53.058Z,40.22
2018-07-31T19:26:20.565Z,40.42
2018-07-31T19:28:48.017Z,40.68
2018-07-31T19:31:15.479Z,42.64
2018-07-31T19:33:43.010Z,43.05
2018-07-31T19:36:10.428Z,41.92
2018-07-31T19:38:37.926Z,42.83
2018-07-31T19:41:05.448Z,42.82
2018-07-31T19:43:32.956Z,43.13
2018-07-31T19:46:00.515Z,42.76
2018-07-31T19:48:27.969Z,42.24
2018-07-31T19:50:55.393Z,42.29
2018-07-31T19:53:23.161Z,42.31
2018-07-31T19:55:50.609Z,42.36
2018-07-31T19:58:18.090Z,42.41
2018-07-31T20:00:45.524Z,42.58
2018-07-31T20:03:12.963Z,42.71
2018-07-31T20:05:40.419Z,42.86
2018-07-31T20:08:07.842Z,43.04
2018-07-31T20:10:35.307Z,43.34
2018-07-31T20:13:02.806Z,44.83
2018-07-31T20:15:30.393Z,44.64
2018-07-31T20:17:57.816Z,44.64
2018-07-31T20:20:25.301Z,45.18
2018-07-31T20:22:52.746Z,44.72
2018-07-31T20:25:20.413Z,44.21
2018-07-31T20:27:47.940Z,44.29
2018-07-31T20:30:15.437Z,44.18
2018-07-31T20:32:42.883Z,44.03
2018-07-31T20:35:10.361Z,43.87
2018-07-31T20:37:37.918Z,43.96
2018-07-31T20:40:06.768Z,44.04
2018-07-31T20:42:34.259Z,44.19
2018-07-31T20:45:01.723Z,44.35
2018-07-31T20:47:29.203Z,44.91
2018-07-31T20:49:56.696Z,45.46
2018-07-31T20:52:24.143Z,45.91
2018-07-31T20:54:51.660Z,46.18
2018-07-31T20:57:19.176Z,46.55
2018-07-31T20:59:46.648Z,47.49
2018-07-31T21:02:14.232Z,47.80
2018-07-31T21:04:41.709Z,48.50
2018-07-31T21:07:09.151Z,48.84
2018-07-31T21:09:36.616Z,49.10
2018-07-31T21:12:04.108Z,49.79
2018-07-31T21:14:31.542Z,50.26
2018-07-31T21:16:59.112Z,50.38
2018-07-31T21:19:26.517Z,50.45
2018-07-31T21:21:54.058Z,50.61
2018-07-31T21:24:21.493Z,50.58
2018-07-31T21:26:49.018Z,50.68
2018-07-31T21:29:16.486Z,50.84
2018-07-31T21:31:43.943Z,50.75
2018-07-31T21:34:11.441Z,50.83
2018-07-31T21:36:38.912Z,51.09
2018-07-31T21:39:06.370Z,50.99
2018-07-31T21:41:33.830Z,51.05
2018-07-31T21:44:02.369Z,51.34
2018-07-31T21:46:30.061Z,51.66
2018-07-31T21:48:57.508Z,51.05
2018-07-31T21:51:24.976Z,51.42
2018-07-31T21:53:52.442Z,51.72
2018-07-31T21:56:20.127Z,52.21
2018-07-31T21:58:47.564Z,52.52
2018-07-31T22:01:15.127Z,52.08
2018-07-31T22:03:42.550Z,52.17
2018-07-31T22:06:10.055Z,52.22
2018-07-31T22:08:37.565Z,52.38
2018-07-31T22:11:05.136Z,52.48
2018-07-31T22:13:32.617Z,52.69
2018-07-31T22:16:00.139Z,53.00
2018-07-31T22:18:27.679Z,53.08
2018-07-31T22:20:55.151Z,53.06
2018-07-31T22:23:22.685Z,52.79
2018-07-31T22:25:50.165Z,52.42
2018-07-31T22:28:17.607Z,52.34
2018-07-31T22:30:45.191Z,52.43
2018-07-31T22:33:12.611Z,51.89
2018-07-31T22:35:40.162Z,51.75
2018-07-31T22:38:07.668Z,52.33
2018-07-31T22:40:35.259Z,51.98
2018-07-31T22:43:02.766Z,51.35
2018-07-31T22:45:30.190Z,51.56
2018-07-31T22:47:57.649Z,51.78
2018-07-31T22:50:25.219Z,52.13
2018-07-31T22:52:52.759Z,52.63
2018-07-31T22:55:20.204Z,53.37
2018-07-31T22:57:47.666Z,53.84
2018-07-31T23:00:15.139Z,54.00
2018-07-31T23:02:42.618Z,54.07
2018-07-31T23:05:10.139Z,54.30
2018-07-31T23:07:37.834Z,54.03
2018-07-31T23:10:05.331Z,54.03
2018-07-31T23:12:32.874Z,53.71
2018-07-31T23:15:00.351Z,53.79
2018-07-31T23:17:27.794Z,53.23
2018-07-31T23:19:55.245Z,53.16
2018-07-31T23:22:23.400Z,52.93
2018-07-31T23:24:50.982Z,52.91
2018-07-31T23:27:18.436Z,52.61
2018-07-31T23:29:45.883Z,52.58
2018-07-31T23:32:13.364Z,52.67
2018-07-31T23:34:40.874Z,52.70
2018-07-31T23:37:08.314Z,52.55
2018-07-31T23:39:35.751Z,52.73
2018-07-31T23:42:03.252Z,52.58
2018-07-31T23:44:30.878Z,52.56
2018-07-31T23:46:58.597Z,52.72
2018-07-31T23:49:26.048Z,53.01
2018-07-31T23:51:53.541Z,53.30
2018-07-31T23:54:21.053Z,53.79
2018-07-31T23:56:48.642Z,53.97
2018-07-31T23:59:16.099Z,54.75
